sensor_id;sensor_type;location;lat;lon;timestamp;P1;durP1;ratioP1;P2;durP2;ratioP2
62848;SDS011;48941;49.516;8.286;2023-08-06T00:00:11;4.25;;;3.50;;
62848;SDS011;48941;49.516;8.286;2023-08-06T00:02:40;4.15;;;3.55;;
62848;SDS011;48941;49.516;8.286;2023-08-06T00:05:08;3.92;;;3.40;;
62848;SDS011;48941;49.516;8.286;2023-08-06T00:07:37;5.13;;;3.50;;
62848;SDS011;48941;49.516;8.286;2023-08-06T00:10:05;5.70;;;4.15;;
62848;SDS011;48941;49.516;8.286;2023-08-06T00:12:33;4.70;;;3.85;;
62848;SDS011;48941;49.516;8.286;2023-08-06T00:15:01;4.30;;;3.38;;
62848;SDS011;48941;49.516;8.286;2023-08-06T00:17:29;3.95;;;3.33;;
62848;SDS011;48941;49.516;8.286;2023-08-06T00:19:57;4.03;;;3.30;;
62848;SDS011;48941;49.516;8.286;2023-08-06T00:22:30;5.70;;;3.47;;
62848;SDS011;48941;49.516;8.286;2023-08-06T00:25:00;5.13;;;3.30;;
62848;SDS011;48941;49.516;8.286;2023-08-06T00:27:28;3.85;;;3.15;;
62848;SDS011;48941;49.516;8.286;2023-08-06T00:29:56;4.45;;;3.13;;
62848;SDS011;48941;49.516;8.286;2023-08-06T00:32:24;4.28;;;3.10;;
62848;SDS011;48941;49.516;8.286;2023-08-06T00:34:52;4.97;;;3.65;;
62848;SDS011;48941;49.516;8.286;2023-08-06T00:37:20;3.47;;;2.90;;
62848;SDS011;48941;49.516;8.286;2023-08-06T00:39:48;3.75;;;2.97;;
62848;SDS011;48941;49.516;8.286;2023-08-06T00:42:17;4.78;;;2.88;;
62848;SDS011;48941;49.516;8.286;2023-08-06T00:44:47;3.40;;;3.08;;
62848;SDS011;48941;49.516;8.286;2023-08-06T00:47:14;3.20;;;2.88;;
62848;SDS011;48941;49.516;8.286;2023-08-06T00:49:42;4.93;;;3.20;;
62848;SDS011;48941;49.516;8.286;2023-08-06T00:52:11;3.75;;;3.00;;
62848;SDS011;48941;49.516;8.286;2023-08-06T00:54:40;4.25;;;2.72;;
62848;SDS011;48941;49.516;8.286;2023-08-06T00:57:08;4.20;;;2.63;;
62848;SDS011;48941;49.516;8.286;2023-08-06T00:59:39;3.30;;;2.78;;
62848;SDS011;48941;49.516;8.286;2023-08-06T01:02:06;5.10;;;2.80;;
62848;SDS011;48941;49.516;8.286;2023-08-06T01:04:34;3.38;;;2.80;;
62848;SDS011;48941;49.516;8.286;2023-08-06T01:07:05;3.30;;;3.00;;
62848;SDS011;48941;49.516;8.286;2023-08-06T01:09:44;7.00;;;3.10;;
62848;SDS011;48941;49.516;8.286;2023-08-06T01:12:22;5.65;;;2.90;;
62848;SDS011;48941;49.516;8.286;2023-08-06T01:15:01;7.32;;;2.78;;
62848;SDS011;48941;49.516;8.286;2023-08-06T01:17:35;3.15;;;2.72;;
62848;SDS011;48941;49.516;8.286;2023-08-06T01:20:04;5.20;;;2.90;;
62848;SDS011;48941;49.516;8.286;2023-08-06T01:22:33;2.80;;;2.60;;
62848;SDS011;48941;49.516;8.286;2023-08-06T01:25:01;3.88;;;2.75;;
62848;SDS011;48941;49.516;8.286;2023-08-06T01:27:30;3.40;;;2.70;;
62848;SDS011;48941;49.516;8.286;2023-08-06T01:30:06;3.78;;;2.92;;
62848;SDS011;48941;49.516;8.286;2023-08-06T01:32:40;5.30;;;2.83;;
62848;SDS011;48941;49.516;8.286;2023-08-06T01:37:42;3.80;;;2.80;;
62848;SDS011;48941;49.516;8.286;2023-08-06T01:40:11;2.80;;;2.50;;
62848;SDS011;48941;49.516;8.286;2023-08-06T01:42:40;4.35;;;2.88;;
62848;SDS011;48941;49.516;8.286;2023-08-06T01:45:08;6.00;;;2.80;;
62848;SDS011;48941;49.516;8.286;2023-08-06T01:47:37;3.88;;;2.83;;
62848;SDS011;48941;49.516;8.286;2023-08-06T01:50:05;8.13;;;3.10;;
62848;SDS011;48941;49.516;8.286;2023-08-06T01:52:34;5.95;;;3.05;;
62848;SDS011;48941;49.516;8.286;2023-08-06T01:55:03;5.55;;;2.65;;
62848;SDS011;48941;49.516;8.286;2023-08-06T01:57:31;4.30;;;3.42;;
62848;SDS011;48941;49.516;8.286;2023-08-06T01:59:59;3.92;;;2.70;;
62848;SDS011;48941;49.516;8.286;2023-08-06T02:02:27;3.70;;;2.80;;
62848;SDS011;48941;49.516;8.286;2023-08-06T02:04:55;3.65;;;2.80;;
62848;SDS011;48941;49.516;8.286;2023-08-06T02:07:24;5.60;;;2.75;;
62848;SDS011;48941;49.516;8.286;2023-08-06T02:09:52;5.18;;;2.70;;
62848;SDS011;48941;49.516;8.286;2023-08-06T02:12:21;7.10;;;2.80;;
62848;SDS011;48941;49.516;8.286;2023-08-06T02:14:49;2.90;;;2.60;;
62848;SDS011;48941;49.516;8.286;2023-08-06T02:17:17;3.40;;;2.90;;
62848;SDS011;48941;49.516;8.286;2023-08-06T02:19:45;3.88;;;2.75;;
62848;SDS011;48941;49.516;8.286;2023-08-06T02:22:13;3.40;;;2.78;;
62848;SDS011;48941;49.516;8.286;2023-08-06T02:24:41;4.70;;;3.03;;
62848;SDS011;48941;49.516;8.286;2023-08-06T02:27:08;2.75;;;2.55;;
62848;SDS011;48941;49.516;8.286;2023-08-06T02:29:37;4.63;;;2.70;;
62848;SDS011;48941;49.516;8.286;2023-08-06T02:32:08;6.05;;;2.75;;
62848;SDS011;48941;49.516;8.286;2023-08-06T02:34:35;4.32;;;2.80;;
62848;SDS011;48941;49.516;8.286;2023-08-06T02:37:04;3.38;;;2.20;;
62848;SDS011;48941;49.516;8.286;2023-08-06T02:39:32;3.17;;;2.60;;
62848;SDS011;48941;49.516;8.286;2023-08-06T02:42:02;5.60;;;2.72;;
62848;SDS011;48941;49.516;8.286;2023-08-06T02:44:30;5.93;;;2.30;;
62848;SDS011;48941;49.516;8.286;2023-08-06T02:46:59;5.43;;;2.65;;
62848;SDS011;48941;49.516;8.286;2023-08-06T02:49:27;6.07;;;2.70;;
62848;SDS011;48941;49.516;8.286;2023-08-06T02:51:55;5.28;;;2.40;;
62848;SDS011;48941;49.516;8.286;2023-08-06T02:54:23;4.45;;;2.40;;
62848;SDS011;48941;49.516;8.286;2023-08-06T02:56:51;4.07;;;2.47;;
62848;SDS011;48941;49.516;8.286;2023-08-06T02:59:19;4.38;;;2.20;;
62848;SDS011;48941;49.516;8.286;2023-08-06T03:01:49;4.60;;;2.35;;
62848;SDS011;48941;49.516;8.286;2023-08-06T03:04:18;3.35;;;2.20;;
62848;SDS011;48941;49.516;8.286;2023-08-06T03:06:46;4.32;;;2.35;;
62848;SDS011;48941;49.516;8.286;2023-08-06T03:09:14;5.15;;;3.20;;
62848;SDS011;48941;49.516;8.286;2023-08-06T03:11:41;2.90;;;2.60;;
62848;SDS011;48941;49.516;8.286;2023-08-06T03:14:09;4.50;;;2.30;;
62848;SDS011;48941;49.516;8.286;2023-08-06T03:16:37;4.10;;;2.53;;
62848;SDS011;48941;49.516;8.286;2023-08-06T03:19:05;3.05;;;2.25;;
62848;SDS011;48941;49.516;8.286;2023-08-06T03:21:34;5.68;;;2.47;;
62848;SDS011;48941;49.516;8.286;2023-08-06T03:24:02;3.00;;;2.03;;
62848;SDS011;48941;49.516;8.286;2023-08-06T03:26:30;3.88;;;2.30;;
62848;SDS011;48941;49.516;8.286;2023-08-06T03:28:57;3.20;;;2.20;;
62848;SDS011;48941;49.516;8.286;2023-08-06T03:31:25;4.20;;;2.17;;
62848;SDS011;48941;49.516;8.286;2023-08-06T03:33:53;5.40;;;2.28;;
62848;SDS011;48941;49.516;8.286;2023-08-06T03:36:21;6.35;;;2.30;;
62848;SDS011;48941;49.516;8.286;2023-08-06T03:38:50;2.63;;;1.90;;
62848;SDS011;48941;49.516;8.286;2023-08-06T03:41:18;2.70;;;2.15;;
62848;SDS011;48941;49.516;8.286;2023-08-06T03:43:47;3.65;;;1.90;;
62848;SDS011;48941;49.516;8.286;2023-08-06T03:46:14;2.65;;;1.92;;
62848;SDS011;48941;49.516;8.286;2023-08-06T03:48:42;3.35;;;2.00;;
62848;SDS011;48941;49.516;8.286;2023-08-06T03:51:10;3.38;;;1.80;;
62848;SDS011;48941;49.516;8.286;2023-08-06T03:53:38;3.13;;;1.95;;
62848;SDS011;48941;49.516;8.286;2023-08-06T03:56:07;4.38;;;2.00;;
62848;SDS011;48941;49.516;8.286;2023-08-06T03:58:35;2.58;;;1.48;;
62848;SDS011;48941;49.516;8.286;2023-08-06T04:01:03;2.15;;;1.27;;
62848;SDS011;48941;49.516;8.286;2023-08-06T04:03:31;1.15;;;0.80;;
62848;SDS011;48941;49.516;8.286;2023-08-06T04:05:58;1.63;;;0.70;;
62848;SDS011;48941;49.516;8.286;2023-08-06T04:08:27;1.38;;;0.73;;
62848;SDS011;48941;49.516;8.286;2023-08-06T04:10:55;0.70;;;0.70;;
62848;SDS011;48941;49.516;8.286;2023-08-06T04:13:24;2.25;;;1.20;;
62848;SDS011;48941;49.516;8.286;2023-08-06T04:15:52;1.63;;;0.80;;
62848;SDS011;48941;49.516;8.286;2023-08-06T04:18:19;1.75;;;0.70;;
62848;SDS011;48941;49.516;8.286;2023-08-06T04:20:47;2.22;;;0.88;;
62848;SDS011;48941;49.516;8.286;2023-08-06T04:23:15;1.17;;;0.60;;
62848;SDS011;48941;49.516;8.286;2023-08-06T04:25:43;1.25;;;0.52;;
62848;SDS011;48941;49.516;8.286;2023-08-06T04:28:11;2.08;;;0.73;;
62848;SDS011;48941;49.516;8.286;2023-08-06T04:30:40;0.60;;;0.60;;
62848;SDS011;48941;49.516;8.286;2023-08-06T04:33:08;1.27;;;0.60;;
62848;SDS011;48941;49.516;8.286;2023-08-06T04:35:36;2.53;;;0.60;;
62848;SDS011;48941;49.516;8.286;2023-08-06T04:38:03;0.65;;;0.60;;
62848;SDS011;48941;49.516;8.286;2023-08-06T04:40:32;0.95;;;0.60;;
62848;SDS011;48941;49.516;8.286;2023-08-06T04:43:00;1.65;;;0.57;;
62848;SDS011;48941;49.516;8.286;2023-08-06T04:45:28;0.82;;;0.63;;
62848;SDS011;48941;49.516;8.286;2023-08-06T04:47:57;4.32;;;0.70;;
62848;SDS011;48941;49.516;8.286;2023-08-06T04:50:25;0.73;;;0.57;;
62848;SDS011;48941;49.516;8.286;2023-08-06T04:52:53;2.13;;;0.77;;
62848;SDS011;48941;49.516;8.286;2023-08-06T04:55:21;2.50;;;0.68;;
62848;SDS011;48941;49.516;8.286;2023-08-06T04:57:49;4.60;;;0.70;;
62848;SDS011;48941;49.516;8.286;2023-08-06T05:00:17;1.08;;;0.77;;
62848;SDS011;48941;49.516;8.286;2023-08-06T05:02:45;1.30;;;0.90;;
62848;SDS011;48941;49.516;8.286;2023-08-06T05:05:14;0.80;;;0.80;;
62848;SDS011;48941;49.516;8.286;2023-08-06T05:07:42;1.65;;;1.00;;
62848;SDS011;48941;49.516;8.286;2023-08-06T05:10:10;2.38;;;1.00;;
62848;SDS011;48941;49.516;8.286;2023-08-06T05:12:37;1.58;;;1.00;;
62848;SDS011;48941;49.516;8.286;2023-08-06T05:15:05;1.20;;;0.80;;
62848;SDS011;48941;49.516;8.286;2023-08-06T05:17:34;2.20;;;0.90;;
62848;SDS011;48941;49.516;8.286;2023-08-06T05:20:02;1.33;;;0.90;;
62848;SDS011;48941;49.516;8.286;2023-08-06T05:22:31;1.52;;;0.60;;
62848;SDS011;48941;49.516;8.286;2023-08-06T05:24:59;0.82;;;0.60;;
62848;SDS011;48941;49.516;8.286;2023-08-06T05:27:28;0.57;;;0.50;;
62848;SDS011;48941;49.516;8.286;2023-08-06T05:29:56;2.22;;;0.60;;
62848;SDS011;48941;49.516;8.286;2023-08-06T05:32:24;0.40;;;0.40;;
62848;SDS011;48941;49.516;8.286;2023-08-06T05:34:51;0.82;;;0.50;;
62848;SDS011;48941;49.516;8.286;2023-08-06T05:37:19;0.40;;;0.40;;
62848;SDS011;48941;49.516;8.286;2023-08-06T05:39:49;0.60;;;0.43;;
62848;SDS011;48941;49.516;8.286;2023-08-06T05:42:17;0.52;;;0.52;;
62848;SDS011;48941;49.516;8.286;2023-08-06T05:44:44;1.58;;;0.47;;
62848;SDS011;48941;49.516;8.286;2023-08-06T05:47:12;1.55;;;0.43;;
62848;SDS011;48941;49.516;8.286;2023-08-06T05:49:40;0.60;;;0.50;;
62848;SDS011;48941;49.516;8.286;2023-08-06T05:52:08;0.70;;;0.50;;
62848;SDS011;48941;49.516;8.286;2023-08-06T05:54:36;1.05;;;0.43;;
62848;SDS011;48941;49.516;8.286;2023-08-06T05:57:05;0.40;;;0.40;;
62848;SDS011;48941;49.516;8.286;2023-08-06T05:59:33;0.55;;;0.55;;
62848;SDS011;48941;49.516;8.286;2023-08-06T06:02:01;0.73;;;0.60;;
62848;SDS011;48941;49.516;8.286;2023-08-06T06:04:29;0.55;;;0.55;;
62848;SDS011;48941;49.516;8.286;2023-08-06T06:06:57;0.50;;;0.50;;
62848;SDS011;48941;49.516;8.286;2023-08-06T06:09:25;0.57;;;0.50;;
62848;SDS011;48941;49.516;8.286;2023-08-06T06:11:52;0.60;;;0.60;;
62848;SDS011;48941;49.516;8.286;2023-08-06T06:14:22;0.50;;;0.50;;
62848;SDS011;48941;49.516;8.286;2023-08-06T06:16:50;0.50;;;0.50;;
62848;SDS011;48941;49.516;8.286;2023-08-06T06:19:19;1.05;;;0.68;;
62848;SDS011;48941;49.516;8.286;2023-08-06T06:21:47;0.70;;;0.70;;
62848;SDS011;48941;49.516;8.286;2023-08-06T06:24:15;0.60;;;0.60;;
62848;SDS011;48941;49.516;8.286;2023-08-06T06:26:42;1.00;;;0.60;;
62848;SDS011;48941;49.516;8.286;2023-08-06T06:29:10;1.55;;;0.65;;
62848;SDS011;48941;49.516;8.286;2023-08-06T06:31:39;1.20;;;0.70;;
62848;SDS011;48941;49.516;8.286;2023-08-06T06:34:07;1.00;;;0.60;;
62848;SDS011;48941;49.516;8.286;2023-08-06T06:36:35;1.00;;;0.63;;
62848;SDS011;48941;49.516;8.286;2023-08-06T06:39:03;0.85;;;0.63;;
62848;SDS011;48941;49.516;8.286;2023-08-06T06:41:30;1.75;;;0.77;;
62848;SDS011;48941;49.516;8.286;2023-08-06T06:43:59;0.75;;;0.50;;
62848;SDS011;48941;49.516;8.286;2023-08-06T06:46:27;1.00;;;0.60;;
62848;SDS011;48941;49.516;8.286;2023-08-06T06:48:56;0.45;;;0.45;;
62848;SDS011;48941;49.516;8.286;2023-08-06T06:51:24;0.50;;;0.50;;
62848;SDS011;48941;49.516;8.286;2023-08-06T06:53:51;0.40;;;0.40;;
62848;SDS011;48941;49.516;8.286;2023-08-06T06:56:19;0.50;;;0.50;;
62848;SDS011;48941;49.516;8.286;2023-08-06T06:58:47;0.40;;;0.40;;
62848;SDS011;48941;49.516;8.286;2023-08-06T07:01:15;1.95;;;0.40;;
62848;SDS011;48941;49.516;8.286;2023-08-06T07:03:43;0.40;;;0.40;;
62848;SDS011;48941;49.516;8.286;2023-08-06T07:06:12;1.95;;;0.40;;
62848;SDS011;48941;49.516;8.286;2023-08-06T07:08:44;0.50;;;0.40;;
62848;SDS011;48941;49.516;8.286;2023-08-06T07:11:12;0.88;;;0.50;;
62848;SDS011;48941;49.516;8.286;2023-08-06T07:13:40;0.40;;;0.40;;
62848;SDS011;48941;49.516;8.286;2023-08-06T07:16:08;0.47;;;0.47;;
62848;SDS011;48941;49.516;8.286;2023-08-06T07:18:37;1.10;;;0.57;;
62848;SDS011;48941;49.516;8.286;2023-08-06T07:21:05;0.40;;;0.40;;
62848;SDS011;48941;49.516;8.286;2023-08-06T07:23:34;0.32;;;0.30;;
62848;SDS011;48941;49.516;8.286;2023-08-06T07:26:02;0.40;;;0.40;;
62848;SDS011;48941;49.516;8.286;2023-08-06T07:28:29;0.40;;;0.40;;
62848;SDS011;48941;49.516;8.286;2023-08-06T07:30:57;0.47;;;0.47;;
62848;SDS011;48941;49.516;8.286;2023-08-06T07:33:25;1.17;;;0.50;;
62848;SDS011;48941;49.516;8.286;2023-08-06T07:35:53;2.42;;;0.40;;
62848;SDS011;48941;49.516;8.286;2023-08-06T07:38:21;0.30;;;0.30;;
62848;SDS011;48941;49.516;8.286;2023-08-06T07:40:50;0.30;;;0.30;;
62848;SDS011;48941;49.516;8.286;2023-08-06T07:43:18;0.30;;;0.30;;
62848;SDS011;48941;49.516;8.286;2023-08-06T07:45:46;0.73;;;0.40;;
62848;SDS011;48941;49.516;8.286;2023-08-06T07:48:13;0.35;;;0.35;;
62848;SDS011;48941;49.516;8.286;2023-08-06T07:50:41;0.43;;;0.43;;
62848;SDS011;48941;49.516;8.286;2023-08-06T07:53:11;0.55;;;0.55;;
62848;SDS011;48941;49.516;8.286;2023-08-06T07:55:39;0.50;;;0.50;;
62848;SDS011;48941;49.516;8.286;2023-08-06T07:58:10;0.50;;;0.50;;
62848;SDS011;48941;49.516;8.286;2023-08-06T08:00:38;0.60;;;0.60;;
62848;SDS011;48941;49.516;8.286;2023-08-06T08:03:08;1.05;;;0.75;;
62848;SDS011;48941;49.516;8.286;2023-08-06T08:05:36;1.33;;;0.75;;
62848;SDS011;48941;49.516;8.286;2023-08-06T08:08:04;2.15;;;0.75;;
62848;SDS011;48941;49.516;8.286;2023-08-06T08:10:32;0.85;;;0.85;;
62848;SDS011;48941;49.516;8.286;2023-08-06T08:13:01;1.98;;;0.88;;
62848;SDS011;48941;49.516;8.286;2023-08-06T08:15:30;0.73;;;0.73;;
62848;SDS011;48941;49.516;8.286;2023-08-06T08:17:59;1.88;;;0.73;;
62848;SDS011;48941;49.516;8.286;2023-08-06T08:20:27;2.50;;;1.00;;
62848;SDS011;48941;49.516;8.286;2023-08-06T08:22:58;0.80;;;0.80;;
62848;SDS011;48941;49.516;8.286;2023-08-06T08:25:27;2.85;;;0.60;;
62848;SDS011;48941;49.516;8.286;2023-08-06T08:27:57;0.82;;;0.77;;
62848;SDS011;48941;49.516;8.286;2023-08-06T08:30:25;0.73;;;0.73;;
62848;SDS011;48941;49.516;8.286;2023-08-06T08:32:54;0.60;;;0.60;;
62848;SDS011;48941;49.516;8.286;2023-08-06T08:35:22;0.85;;;0.70;;
62848;SDS011;48941;49.516;8.286;2023-08-06T08:37:50;0.80;;;0.60;;
62848;SDS011;48941;49.516;8.286;2023-08-06T08:40:18;2.08;;;0.70;;
62848;SDS011;48941;49.516;8.286;2023-08-06T08:42:47;0.50;;;0.50;;
62848;SDS011;48941;49.516;8.286;2023-08-06T08:45:15;0.60;;;0.60;;
62848;SDS011;48941;49.516;8.286;2023-08-06T08:47:45;0.98;;;0.70;;
62848;SDS011;48941;49.516;8.286;2023-08-06T08:50:15;0.50;;;0.50;;
62848;SDS011;48941;49.516;8.286;2023-08-06T08:52:46;0.80;;;0.60;;
62848;SDS011;48941;49.516;8.286;2023-08-06T08:55:15;0.50;;;0.50;;
62848;SDS011;48941;49.516;8.286;2023-08-06T08:57:43;0.50;;;0.50;;
62848;SDS011;48941;49.516;8.286;2023-08-06T09:00:11;0.90;;;0.65;;
62848;SDS011;48941;49.516;8.286;2023-08-06T09:02:40;0.68;;;0.40;;
62848;SDS011;48941;49.516;8.286;2023-08-06T09:05:10;1.15;;;0.60;;
62848;SDS011;48941;49.516;8.286;2023-08-06T09:07:41;0.65;;;0.65;;
62848;SDS011;48941;49.516;8.286;2023-08-06T09:10:10;2.67;;;0.60;;
62848;SDS011;48941;49.516;8.286;2023-08-06T09:12:42;0.60;;;0.60;;
62848;SDS011;48941;49.516;8.286;2023-08-06T09:15:10;1.85;;;0.50;;
62848;SDS011;48941;49.516;8.286;2023-08-06T09:17:39;1.58;;;0.55;;
62848;SDS011;48941;49.516;8.286;2023-08-06T09:20:11;0.73;;;0.50;;
62848;SDS011;48941;49.516;8.286;2023-08-06T09:22:41;1.73;;;0.50;;
62848;SDS011;48941;49.516;8.286;2023-08-06T09:25:10;0.50;;;0.50;;
62848;SDS011;48941;49.516;8.286;2023-08-06T09:27:40;2.05;;;0.47;;
62848;SDS011;48941;49.516;8.286;2023-08-06T09:30:08;0.43;;;0.43;;
62848;SDS011;48941;49.516;8.286;2023-08-06T09:32:44;1.35;;;0.50;;
62848;SDS011;48941;49.516;8.286;2023-08-06T09:35:15;0.30;;;0.30;;
62848;SDS011;48941;49.516;8.286;2023-08-06T09:37:44;0.40;;;0.40;;
62848;SDS011;48941;49.516;8.286;2023-08-06T09:40:24;0.93;;;0.50;;
62848;SDS011;48941;49.516;8.286;2023-08-06T09:42:53;0.95;;;0.85;;
62848;SDS011;48941;49.516;8.286;2023-08-06T09:45:21;0.40;;;0.40;;
62848;SDS011;48941;49.516;8.286;2023-08-06T09:47:49;0.52;;;0.52;;
62848;SDS011;48941;49.516;8.286;2023-08-06T09:50:18;0.50;;;0.50;;
62848;SDS011;48941;49.516;8.286;2023-08-06T09:52:48;0.30;;;0.30;;
62848;SDS011;48941;49.516;8.286;2023-08-06T09:55:18;0.40;;;0.40;;
62848;SDS011;48941;49.516;8.286;2023-08-06T09:57:48;0.43;;;0.40;;
62848;SDS011;48941;49.516;8.286;2023-08-06T10:00:17;1.13;;;0.40;;
62848;SDS011;48941;49.516;8.286;2023-08-06T10:02:45;0.40;;;0.40;;
62848;SDS011;48941;49.516;8.286;2023-08-06T10:05:15;0.40;;;0.40;;
62848;SDS011;48941;49.516;8.286;2023-08-06T10:07:43;1.08;;;0.82;;
62848;SDS011;48941;49.516;8.286;2023-08-06T10:10:14;0.40;;;0.40;;
62848;SDS011;48941;49.516;8.286;2023-08-06T10:12:43;0.40;;;0.40;;
62848;SDS011;48941;49.516;8.286;2023-08-06T10:15:16;0.40;;;0.40;;
62848;SDS011;48941;49.516;8.286;2023-08-06T10:17:49;0.40;;;0.40;;
62848;SDS011;48941;49.516;8.286;2023-08-06T10:20:20;1.15;;;0.60;;
62848;SDS011;48941;49.516;8.286;2023-08-06T10:22:59;0.80;;;0.50;;
62848;SDS011;48941;49.516;8.286;2023-08-06T10:25:31;0.40;;;0.40;;
62848;SDS011;48941;49.516;8.286;2023-08-06T10:28:00;0.40;;;0.40;;
62848;SDS011;48941;49.516;8.286;2023-08-06T10:30:36;0.40;;;0.40;;
62848;SDS011;48941;49.516;8.286;2023-08-06T10:33:09;0.55;;;0.55;;
62848;SDS011;48941;49.516;8.286;2023-08-06T10:35:37;0.50;;;0.50;;
62848;SDS011;48941;49.516;8.286;2023-08-06T10:38:10;0.77;;;0.70;;
62848;SDS011;48941;49.516;8.286;2023-08-06T10:40:41;0.32;;;0.32;;
62848;SDS011;48941;49.516;8.286;2023-08-06T10:43:24;3.83;;;0.65;;
62848;SDS011;48941;49.516;8.286;2023-08-06T10:45:53;0.75;;;0.70;;
62848;SDS011;48941;49.516;8.286;2023-08-06T10:48:28;0.77;;;0.60;;
62848;SDS011;48941;49.516;8.286;2023-08-06T10:50:56;1.00;;;0.70;;
62848;SDS011;48941;49.516;8.286;2023-08-06T10:53:24;1.85;;;0.50;;
62848;SDS011;48941;49.516;8.286;2023-08-06T10:55:53;3.15;;;0.60;;
62848;SDS011;48941;49.516;8.286;2023-08-06T10:58:21;0.40;;;0.40;;
62848;SDS011;48941;49.516;8.286;2023-08-06T11:00:49;0.50;;;0.50;;
62848;SDS011;48941;49.516;8.286;2023-08-06T11:03:17;0.73;;;0.73;;
62848;SDS011;48941;49.516;8.286;2023-08-06T11:05:48;0.50;;;0.50;;
62848;SDS011;48941;49.516;8.286;2023-08-06T11:08:22;1.75;;;0.50;;
62848;SDS011;48941;49.516;8.286;2023-08-06T11:10:51;0.50;;;0.50;;
62848;SDS011;48941;49.516;8.286;2023-08-06T11:13:30;1.65;;;0.63;;
62848;SDS011;48941;49.516;8.286;2023-08-06T11:15:59;1.00;;;0.60;;
62848;SDS011;48941;49.516;8.286;2023-08-06T11:18:28;0.65;;;0.52;;
62848;SDS011;48941;49.516;8.286;2023-08-06T11:20:58;0.50;;;0.50;;
62848;SDS011;48941;49.516;8.286;2023-08-06T11:23:26;0.80;;;0.80;;
62848;SDS011;48941;49.516;8.286;2023-08-06T11:25:55;0.60;;;0.60;;
62848;SDS011;48941;49.516;8.286;2023-08-06T11:28:23;0.60;;;0.60;;
62848;SDS011;48941;49.516;8.286;2023-08-06T11:30:52;0.80;;;0.70;;
62848;SDS011;48941;49.516;8.286;2023-08-06T11:33:21;0.50;;;0.50;;
62848;SDS011;48941;49.516;8.286;2023-08-06T11:35:51;0.98;;;0.80;;
62848;SDS011;48941;49.516;8.286;2023-08-06T11:38:19;0.80;;;0.80;;
62848;SDS011;48941;49.516;8.286;2023-08-06T11:40:47;4.47;;;0.88;;
62848;SDS011;48941;49.516;8.286;2023-08-06T11:43:15;2.95;;;0.93;;
62848;SDS011;48941;49.516;8.286;2023-08-06T11:45:45;1.45;;;0.75;;
62848;SDS011;48941;49.516;8.286;2023-08-06T11:48:14;1.05;;;1.00;;
62848;SDS011;48941;49.516;8.286;2023-08-06T11:50:43;2.47;;;0.85;;
62848;SDS011;48941;49.516;8.286;2023-08-06T11:53:12;1.38;;;0.90;;
62848;SDS011;48941;49.516;8.286;2023-08-06T11:55:41;1.38;;;1.15;;
62848;SDS011;48941;49.516;8.286;2023-08-06T11:58:09;6.05;;;1.30;;
62848;SDS011;48941;49.516;8.286;2023-08-06T12:00:39;3.20;;;0.93;;
62848;SDS011;48941;49.516;8.286;2023-08-06T12:03:06;2.95;;;0.95;;
62848;SDS011;48941;49.516;8.286;2023-08-06T12:05:36;2.03;;;1.15;;
62848;SDS011;48941;49.516;8.286;2023-08-06T12:08:05;1.20;;;1.10;;
62848;SDS011;48941;49.516;8.286;2023-08-06T12:10:33;4.15;;;1.50;;
62848;SDS011;48941;49.516;8.286;2023-08-06T12:13:01;3.22;;;0.95;;
62848;SDS011;48941;49.516;8.286;2023-08-06T12:15:29;2.70;;;1.10;;
62848;SDS011;48941;49.516;8.286;2023-08-06T12:17:59;3.58;;;1.10;;
62848;SDS011;48941;49.516;8.286;2023-08-06T12:20:27;1.27;;;1.10;;
62848;SDS011;48941;49.516;8.286;2023-08-06T12:22:56;2.05;;;1.08;;
62848;SDS011;48941;49.516;8.286;2023-08-06T12:25:24;2.05;;;1.20;;
62848;SDS011;48941;49.516;8.286;2023-08-06T12:27:51;2.35;;;1.20;;
62848;SDS011;48941;49.516;8.286;2023-08-06T12:30:19;5.07;;;1.10;;
62848;SDS011;48941;49.516;8.286;2023-08-06T12:32:47;1.02;;;1.02;;
62848;SDS011;48941;49.516;8.286;2023-08-06T12:35:15;1.00;;;1.00;;
62848;SDS011;48941;49.516;8.286;2023-08-06T12:37:43;1.23;;;1.02;;
62848;SDS011;48941;49.516;8.286;2023-08-06T12:40:13;1.15;;;1.05;;
62848;SDS011;48941;49.516;8.286;2023-08-06T12:43:01;2.60;;;0.93;;
62848;SDS011;48941;49.516;8.286;2023-08-06T12:45:29;0.80;;;0.80;;
62848;SDS011;48941;49.516;8.286;2023-08-06T12:47:56;1.00;;;0.95;;
62848;SDS011;48941;49.516;8.286;2023-08-06T12:50:24;1.27;;;1.10;;
62848;SDS011;48941;49.516;8.286;2023-08-06T12:52:52;1.20;;;0.98;;
62848;SDS011;48941;49.516;8.286;2023-08-06T12:55:21;2.90;;;1.25;;
62848;SDS011;48941;49.516;8.286;2023-08-06T12:57:49;1.58;;;1.30;;
62848;SDS011;48941;49.516;8.286;2023-08-06T13:00:24;1.00;;;0.90;;
62848;SDS011;48941;49.516;8.286;2023-08-06T13:02:52;0.80;;;0.80;;
62848;SDS011;48941;49.516;8.286;2023-08-06T13:05:20;4.47;;;0.70;;
62848;SDS011;48941;49.516;8.286;2023-08-06T13:07:48;0.80;;;0.80;;
62848;SDS011;48941;49.516;8.286;2023-08-06T13:10:15;0.88;;;0.88;;
62848;SDS011;48941;49.516;8.286;2023-08-06T13:12:45;0.77;;;0.70;;
62848;SDS011;48941;49.516;8.286;2023-08-06T13:15:13;1.65;;;0.80;;
62848;SDS011;48941;49.516;8.286;2023-08-06T13:17:43;0.80;;;0.80;;
62848;SDS011;48941;49.516;8.286;2023-08-06T13:20:11;2.65;;;0.98;;
62848;SDS011;48941;49.516;8.286;2023-08-06T13:22:39;0.80;;;0.80;;
62848;SDS011;48941;49.516;8.286;2023-08-06T13:25:06;0.85;;;0.85;;
62848;SDS011;48941;49.516;8.286;2023-08-06T13:27:34;1.35;;;1.00;;
62848;SDS011;48941;49.516;8.286;2023-08-06T13:30:04;0.80;;;0.80;;
62848;SDS011;48941;49.516;8.286;2023-08-06T13:32:32;1.92;;;1.00;;
62848;SDS011;48941;49.516;8.286;2023-08-06T13:35:03;1.65;;;0.93;;
62848;SDS011;48941;49.516;8.286;2023-08-06T13:37:31;1.85;;;0.80;;
62848;SDS011;48941;49.516;8.286;2023-08-06T13:39:59;0.80;;;0.65;;
62848;SDS011;48941;49.516;8.286;2023-08-06T13:42:27;2.55;;;0.65;;
62848;SDS011;48941;49.516;8.286;2023-08-06T13:44:55;1.05;;;0.80;;
62848;SDS011;48941;49.516;8.286;2023-08-06T13:47:29;4.43;;;1.00;;
62848;SDS011;48941;49.516;8.286;2023-08-06T13:49:57;0.80;;;0.80;;
62848;SDS011;48941;49.516;8.286;2023-08-06T13:52:25;2.55;;;0.90;;
62848;SDS011;48941;49.516;8.286;2023-08-06T13:54:54;0.77;;;0.77;;
62848;SDS011;48941;49.516;8.286;2023-08-06T13:57:22;1.40;;;0.98;;
62848;SDS011;48941;49.516;8.286;2023-08-06T13:59:49;1.00;;;1.00;;
62848;SDS011;48941;49.516;8.286;2023-08-06T14:02:17;2.78;;;1.02;;
62848;SDS011;48941;49.516;8.286;2023-08-06T14:04:47;0.98;;;0.82;;
62848;SDS011;48941;49.516;8.286;2023-08-06T14:07:14;2.35;;;1.10;;
62848;SDS011;48941;49.516;8.286;2023-08-06T14:09:42;1.38;;;0.93;;
62848;SDS011;48941;49.516;8.286;2023-08-06T14:12:10;1.55;;;0.77;;
62848;SDS011;48941;49.516;8.286;2023-08-06T14:14:38;2.33;;;0.80;;
62848;SDS011;48941;49.516;8.286;2023-08-06T14:17:06;2.03;;;1.00;;
62848;SDS011;48941;49.516;8.286;2023-08-06T14:19:34;0.80;;;0.80;;
62848;SDS011;48941;49.516;8.286;2023-08-06T14:22:03;1.05;;;0.90;;
62848;SDS011;48941;49.516;8.286;2023-08-06T14:24:31;0.88;;;0.70;;
62848;SDS011;48941;49.516;8.286;2023-08-06T14:26:59;0.73;;;0.70;;
62848;SDS011;48941;49.516;8.286;2023-08-06T14:29:27;2.28;;;1.05;;
62848;SDS011;48941;49.516;8.286;2023-08-06T14:31:55;1.13;;;0.80;;
62848;SDS011;48941;49.516;8.286;2023-08-06T14:34:23;1.00;;;1.00;;
62848;SDS011;48941;49.516;8.286;2023-08-06T14:36:51;1.77;;;0.98;;
62848;SDS011;48941;49.516;8.286;2023-08-06T14:39:20;0.95;;;0.85;;
62848;SDS011;48941;49.516;8.286;2023-08-06T14:41:48;0.77;;;0.77;;
62848;SDS011;48941;49.516;8.286;2023-08-06T14:44:16;1.45;;;0.90;;
62848;SDS011;48941;49.516;8.286;2023-08-06T14:46:44;2.28;;;1.20;;
62848;SDS011;48941;49.516;8.286;2023-08-06T14:49:12;0.90;;;0.90;;
62848;SDS011;48941;49.516;8.286;2023-08-06T14:51:39;2.25;;;0.88;;
62848;SDS011;48941;49.516;8.286;2023-08-06T14:54:07;3.50;;;1.00;;
62848;SDS011;48941;49.516;8.286;2023-08-06T14:56:36;3.05;;;1.10;;
62848;SDS011;48941;49.516;8.286;2023-08-06T14:59:04;1.17;;;1.00;;